Time;durP1;ratioP1;P1;durP2;ratioP2;P2;SDS_P1;SDS_P2;PMS_P1;PMS_P2;Temp;Humidity;BMP_temperature;BMP_pressure;BME280_temperature;BME280_humidity;BME280_pressure;Samples;Min_cycle;Max_cycle;Signal;HPM_P1;HPM_P2
2021/12/29 00:02:18;;;;;;;125.68;24.23;;;5.90;99.90;;;;;;5016651;28;20542;-84
2021/12/29 00:04:44;;;;;;;135.57;23.13;;;5.90;99.90;;;;;;5069216;28;20073;-84
2021/12/29 00:07:10;;;;;;;101.85;20.83;;;6.10;99.90;;;;;;5029457;28;20050;-84
2021/12/29 00:09:39;;;;;;;147.50;23.88;;;5.90;99.90;;;;;;5061781;28;20075;-85
2021/12/29 00:12:07;;;;;;;177.32;22.40;;;6.10;99.90;;;;;;5029122;28;20405;-84
2021/12/29 00:14:34;;;;;;;96.53;18.10;;;5.80;99.90;;;;;;5012772;28;20375;-84
2021/12/29 00:17:00;;;;;;;;;;;5.80;99.90;;;;;;5045955;28;20062;-84
2021/12/29 00:19:26;;;;;;;92.05;17.05;;;5.80;99.90;;;;;;5029524;28;19917;-84
2021/12/29 00:21:52;;;;;;;71.00;16.08;;;5.90;99.90;;;;;;5012600;28;20044;-84
2021/12/29 00:24:18;;;;;;;93.03;16.67;;;5.80;99.90;;;;;;5029470;28;20414;-84
2021/12/29 00:26:44;;;;;;;60.17;14.23;;;5.70;99.90;;;;;;5045005;28;20094;-84
2021/12/29 00:29:10;;;;;;;58.20;14.38;;;5.80;99.90;;;;;;5061999;28;20134;-84
2021/12/29 00:31:35;;;;;;;58.03;14.77;;;6.60;99.90;;;;;;5012347;28;20505;-84
2021/12/29 00:34:01;;;;;;;50.33;14.40;;;5.80;99.90;;;;;;5062226;28;20405;-84
2021/12/29 00:36:27;;;;;;;73.20;16.02;;;5.90;99.90;;;;;;5012099;28;20040;-84
2021/12/29 00:38:53;;;;;;;61.72;14.70;;;5.90;99.90;;;;;;5062036;28;20329;-84
2021/12/29 00:41:20;;;;;;;69.00;14.98;;;6.10;99.90;;;;;;5045474;28;20072;-85
2021/12/29 00:43:46;;;;;;;;;;;5.90;99.90;;;;;;5028521;28;20044;-85
2021/12/29 00:46:14;;;;;;;50.88;13.52;;;5.90;99.90;;;;;;5045792;28;19917;-84
2021/12/29 00:48:43;;;;;;;64.40;13.95;;;5.90;99.90;;;;;;5011827;28;20589;-84
2021/12/29 00:51:10;;;;;;;61.22;14.50;;;5.80;99.90;;;;;;5061486;28;20084;-85
2021/12/29 00:53:36;;;;;;;55.92;13.57;;;5.90;99.90;;;;;;5010756;28;20038;-84
2021/12/29 00:56:04;;;;;;;61.28;13.57;;;5.90;99.90;;;;;;5059660;28;20052;-84
2021/12/29 00:58:30;;;;;;;86.00;15.98;;;5.90;99.90;;;;;;5048389;28;20032;-84
2021/12/29 01:00:57;;;;;;;74.25;14.65;;;5.90;99.90;;;;;;5047900;28;20041;-84
2021/12/29 01:03:23;;;;;;;86.32;15.65;;;7.00;99.90;;;;;;5082193;28;20512;-84
2021/12/29 01:05:49;;;;;;;70.75;14.77;;;6.00;99.90;;;;;;5047885;28;20107;-85
2021/12/29 01:08:15;;;;;;;104.20;15.70;;;6.00;99.90;;;;;;5031694;28;20172;-84
2021/12/29 01:10:41;;;;;;;82.85;15.88;;;6.00;99.90;;;;;;5031243;28;20118;-84
2021/12/29 01:13:10;;;;;;;151.63;19.58;;;6.00;99.90;;;;;;5062008;28;20052;-84
2021/12/29 01:18:25;;;;;;;145.80;18.85;;;6.00;99.90;;;;;;5061415;28;20061;-85
2021/12/29 01:20:50;;;;;;;166.85;19.83;;;6.00;99.90;;;;;;5011318;28;20046;-85
2021/12/29 01:23:16;;;;;;;106.05;16.83;;;6.40;99.90;;;;;;5044737;28;20041;-84
2021/12/29 01:25:42;;;;;;;86.60;16.05;;;6.20;99.90;;;;;;5044195;28;20120;-84
2021/12/29 01:28:07;;;;;;;132.70;19.58;;;6.00;99.90;;;;;;5011678;28;20044;-84
2021/12/29 01:30:33;;;;;;;81.47;17.35;;;6.60;99.90;;;;;;5060929;28;20073;-84
2021/12/29 01:33:05;;;;;;;105.40;18.95;;;6.00;99.90;;;;;;5044429;28;20132;-84
2021/12/29 01:35:34;;;;;;;144.13;21.02;;;6.00;99.90;;;;;;5027882;28;20104;-84
2021/12/29 01:38:01;;;;;;;141.80;22.02;;;6.10;99.90;;;;;;5061276;28;20033;-84
2021/12/29 01:40:28;;;;;;;159.15;21.15;;;6.00;99.90;;;;;;5044398;28;20049;-85
2021/12/29 01:42:54;;;;;;;175.02;24.08;;;6.30;99.90;;;;;;5060833;28;20053;-84
2021/12/29 01:45:20;;;;;;;177.20;22.50;;;6.20;99.90;;;;;;5028069;28;20041;-84
2021/12/29 01:47:46;;;;;;;190.18;23.63;;;6.10;99.90;;;;;;5010923;28;20357;-84
2021/12/29 01:50:13;;;;;;;192.27;23.63;;;6.60;99.90;;;;;;5044534;28;20037;-85
2021/12/29 01:52:40;;;;;;;222.65;23.80;;;6.10;99.90;;;;;;5027439;28;20049;-85
2021/12/29 01:55:11;;;;;;;243.02;25.55;;;6.10;99.90;;;;;;5044057;28;20033;-84
2021/12/29 01:57:38;;;;;;;144.73;20.05;;;6.10;99.90;;;;;;5027852;28;20037;-85
2021/12/29 02:00:08;;;;;;;171.25;22.92;;;6.10;99.90;;;;;;5027981;28;20096;-84
2021/12/29 02:02:34;;;;;;;149.43;19.27;;;6.10;99.90;;;;;;5027390;28;20128;-85
2021/12/29 02:04:59;;;;;;;108.43;17.52;;;6.20;99.90;;;;;;5063770;28;20458;-84
2021/12/29 02:07:25;;;;;;;110.13;18.73;;;6.20;99.90;;;;;;5031551;28;20041;-85
2021/12/29 02:09:51;;;;;;;133.88;23.15;;;6.30;99.90;;;;;;5014291;28;20042;-84
2021/12/29 02:12:17;;;;;;;112.10;19.65;;;6.20;99.90;;;;;;4998549;28;20033;-84
2021/12/29 02:14:43;;;;;;;110.40;19.92;;;6.40;99.90;;;;;;5031118;28;20048;-85
2021/12/29 02:17:09;;;;;;;99.95;20.10;;;6.40;99.90;;;;;;5064239;28;20358;-85
2021/12/29 02:19:42;;;;;;;98.85;19.05;;;6.50;99.90;;;;;;5064759;28;20049;-84
2021/12/29 02:22:14;;;;;;;98.60;17.95;;;6.50;99.90;;;;;;5031725;28;20405;-84
2021/12/29 02:24:43;;;;;;;111.97;19.77;;;6.50;99.90;;;;;;5047634;28;20041;-85
2021/12/29 02:27:12;;;;;;;96.90;18.77;;;6.50;99.90;;;;;;5047720;28;20147;-84
2021/12/29 02:29:41;;;;;;;85.88;16.60;;;6.50;99.90;;;;;;5030373;28;20079;-84
2021/12/29 02:32:07;;;;;;;96.43;17.55;;;6.50;99.90;;;;;;5064545;28;20052;-84
2021/12/29 02:34:33;;;;;;;95.18;17.83;;;6.50;99.90;;;;;;5064703;28;20041;-83
2021/12/29 02:37:02;;;;;;;92.65;17.77;;;6.40;99.90;;;;;;5064057;28;20647;-83
2021/12/29 02:39:31;;;;;;;97.13;16.75;;;6.40;99.90;;;;;;5064820;28;20121;-84
2021/12/29 02:42:00;;;;;;;109.50;17.00;;;6.40;99.90;;;;;;5014003;28;20725;-84
2021/12/29 02:44:28;;;;;;;88.50;16.02;;;6.60;99.90;;;;;;5031167;28;20077;-83
2021/12/29 02:46:56;;;;;;;69.55;13.93;;;6.40;99.90;;;;;;5047067;28;20083;-84
2021/12/29 02:49:23;;;;;;;58.20;13.38;;;7.40;99.90;;;;;;5030570;28;20046;-84
2021/12/29 02:51:49;;;;;;;63.42;13.93;;;6.50;99.90;;;;;;5014248;28;20044;-83
2021/12/29 02:54:16;;;;;;;73.63;13.95;;;6.80;99.90;;;;;;5030938;28;20037;-84
2021/12/29 02:56:43;;;;;;;61.17;12.80;;;6.50;99.90;;;;;;5014134;28;20564;-84
2021/12/29 02:59:09;;;;;;;56.03;11.82;;;6.50;99.90;;;;;;5030467;28;20041;-84
2021/12/29 03:01:34;;;;;;;71.47;14.18;;;6.60;99.90;;;;;;5064375;28;20508;-84
2021/12/29 03:04:04;;;;;;;70.80;14.68;;;6.60;99.90;;;;;;5063503;28;20044;-84
2021/12/29 03:06:30;;;;;;;66.88;12.48;;;6.60;99.90;;;;;;5030560;28;20037;-84
2021/12/29 03:08:56;;;;;;;65.28;12.27;;;6.60;99.90;;;;;;5063079;28;20520;-84
2021/12/29 03:11:22;;;;;;;64.95;11.55;;;6.50;99.90;;;;;;5047469;28;20173;-84
2021/12/29 03:13:48;;;;;;;62.92;12.73;;;6.80;99.90;;;;;;5029948;28;20608;-84
2021/12/29 03:16:14;;;;;;;64.75;12.20;;;6.60;99.90;;;;;;5046485;28;20116;-84
2021/12/29 03:18:40;;;;;;;71.30;12.35;;;6.60;99.90;;;;;;5029952;28;20050;-84
2021/12/29 03:21:07;;;;;;;60.90;12.52;;;6.60;99.90;;;;;;5014070;28;20037;-84
2021/12/29 03:23:33;;;;;;;62.40;12.77;;;6.50;99.90;;;;;;5063675;28;20049;-84
2021/12/29 03:25:59;;;;;;;77.50;13.00;;;6.50;99.90;;;;;;5063345;28;20314;-84
2021/12/29 03:28:25;;;;;;;76.95;13.23;;;7.10;99.90;;;;;;5030112;28;20061;-84
2021/12/29 03:30:54;;;;;;;62.00;13.05;;;6.50;99.90;;;;;;5029744;28;20131;-83
2021/12/29 03:33:21;;;;;;;73.18;14.10;;;6.50;99.90;;;;;;5030250;28;20069;-84
2021/12/29 03:35:49;;;;;;;58.75;13.57;;;6.50;99.90;;;;;;5029782;28;20064;-84
2021/12/29 03:38:18;;;;;;;71.45;14.13;;;6.50;99.90;;;;;;5029878;28;20088;-84
2021/12/29 03:40:44;;;;;;;67.05;14.13;;;6.50;99.90;;;;;;5046485;28;20045;-84
2021/12/29 03:43:11;;;;;;;71.00;15.00;;;6.90;99.90;;;;;;5030001;28;20121;-84
2021/12/29 03:45:38;;;;;;;80.18;17.15;;;6.50;99.90;;;;;;5030554;28;20472;-83
2021/12/29 03:48:09;;;;;;;77.68;17.38;;;6.50;99.90;;;;;;5029394;28;20133;-84
2021/12/29 03:50:35;;;;;;;77.65;16.17;;;6.50;99.90;;;;;;5030168;28;20041;-84
2021/12/29 03:53:01;;;;;;;70.13;16.70;;;6.60;99.90;;;;;;5029567;28;20143;-84
2021/12/29 03:55:27;;;;;;;69.63;17.83;;;6.60;99.90;;;;;;5030328;28;20029;-84
2021/12/29 03:57:53;;;;;;;76.43;17.15;;;6.80;99.90;;;;;;5061939;28;20494;-84
2021/12/29 04:00:20;;;;;;;84.78;18.25;;;6.60;99.90;;;;;;5062771;28;20147;-84
2021/12/29 04:02:47;;;;;;;95.22;19.52;;;6.60;99.90;;;;;;5029625;28;20520;-84
2021/12/29 04:05:16;;;;;;;109.10;20.83;;;6.50;99.90;;;;;;5013250;28;20045;-84
2021/12/29 04:07:42;;;;;;;101.07;19.85;;;6.60;99.90;;;;;;5029265;28;20040;-84
2021/12/29 04:10:09;;;;;;;109.75;20.10;;;7.00;99.90;;;;;;5062660;28;20485;-84
2021/12/29 04:12:36;;;;;;;115.32;21.23;;;6.50;99.90;;;;;;5002714;28;20038;-84
2021/12/29 04:15:03;;;;;;;;;;;6.60;99.90;;;;;;5062669;28;20194;-84
2021/12/29 04:17:36;;;;;;;92.10;19.27;;;6.60;99.90;;;;;;5062610;28;19921;-84
2021/12/29 04:23:06;;;;;;;83.07;19.75;;;6.60;99.90;;;;;;5061859;28;20083;-84
2021/12/29 04:25:36;;;;;;;80.70;20.02;;;6.70;99.90;;;;;;5062500;28;20046;-85
2021/12/29 04:28:03;;;;;;;83.20;20.10;;;6.70;99.90;;;;;;5061627;28;20033;-84
2021/12/29 04:30:31;;;;;;;82.22;20.27;;;6.70;99.90;;;;;;5081448;28;20385;-84
2021/12/29 04:32:56;;;;;;;75.45;19.52;;;6.60;99.90;;;;;;5065681;28;20075;-85
2021/12/29 04:35:23;;;;;;;72.80;19.33;;;6.70;99.90;;;;;;5065548;28;20083;-84
2021/12/29 04:37:50;;;;;;;81.07;21.45;;;6.70;99.90;;;;;;5081324;28;20049;-85
2021/12/29 04:40:16;;;;;;;75.82;20.10;;;7.50;99.90;;;;;;5031989;28;20132;-84
2021/12/29 04:42:42;;;;;;;78.10;20.52;;;6.80;99.90;;;;;;5065752;28;20040;-84
2021/12/29 04:45:09;;;;;;;69.40;20.48;;;6.70;99.90;;;;;;5024699;28;20404;-85
2021/12/29 04:47:39;;;;;;;;;;;6.70;99.90;;;;;;5045592;28;20152;-84
2021/12/29 04:50:13;;;;;;;69.72;19.50;;;6.80;99.90;;;;;;5044570;28;20352;-84
2021/12/29 04:52:39;;;;;;;73.10;19.45;;;6.70;99.90;;;;;;5028605;28;20054;-84
2021/12/29 04:55:07;;;;;;;77.93;19.15;;;6.70;99.90;;;;;;5011639;28;20045;-84
2021/12/29 04:57:34;;;;;;;84.53;19.77;;;6.70;99.90;;;;;;5012268;28;20099;-85
2021/12/29 05:00:05;;;;;;;77.35;18.90;;;6.70;99.90;;;;;;5060562;28;20064;-84
2021/12/29 05:02:30;;;;;;;68.47;18.00;;;6.80;99.90;;;;;;5045599;28;20091;-85
2021/12/29 05:05:00;;;;;;;67.53;17.80;;;6.80;99.90;;;;;;5011928;28;20045;-85
2021/12/29 05:10:10;;;;;;;64.00;17.15;;;6.80;99.90;;;;;;5061432;28;20080;-85
2021/12/29 05:12:36;;;;;;;67.22;18.92;;;6.80;99.90;;;;;;5028353;28;20073;-85
2021/12/29 05:15:03;;;;;;;76.88;19.30;;;7.10;99.90;;;;;;5061301;28;20037;-85
2021/12/29 05:17:29;;;;;;;76.97;18.75;;;6.80;99.90;;;;;;5028263;28;20124;-85
2021/12/29 05:19:55;;;;;;;74.47;19.45;;;6.80;99.90;;;;;;5061374;28;20144;-85
2021/12/29 05:22:21;;;;;;;74.23;19.13;;;6.80;99.90;;;;;;5028401;28;20033;-85
2021/12/29 05:24:46;;;;;;;69.72;19.58;;;6.90;99.90;;;;;;5012164;28;20085;-85
2021/12/29 05:27:12;;;;;;;80.17;19.30;;;6.80;99.90;;;;;;5044604;28;20179;-85
2021/12/29 05:29:38;;;;;;;74.70;19.57;;;6.80;99.90;;;;;;5045000;28;20715;-84
2021/12/29 05:32:06;;;;;;;70.70;20.25;;;6.80;99.90;;;;;;5027817;28;20045;-84
2021/12/29 05:34:32;;;;;;;72.65;19.58;;;6.80;99.90;;;;;;5028320;28;20045;-85
2021/12/29 05:36:58;;;;;;;67.82;19.27;;;6.90;99.90;;;;;;5044389;28;20260;-84
2021/12/29 05:39:24;;;;;;;74.32;19.20;;;6.80;99.90;;;;;;5046257;28;20077;-85
2021/12/29 05:41:51;;;;;;;80.78;19.83;;;6.80;99.90;;;;;;5065257;28;20041;-85
2021/12/29 05:44:17;;;;;;;76.97;20.02;;;6.80;99.90;;;;;;5032391;28;20045;-84
2021/12/29 05:46:43;;;;;;;74.40;20.63;;;6.80;99.90;;;;;;5031952;28;20107;-85
2021/12/29 05:49:09;;;;;;;;;;;7.50;99.90;;;;;;5046162;28;20519;-85
2021/12/29 05:51:35;;;;;;;71.32;19.48;;;6.80;99.90;;;;;;5051554;28;20007;-85
2021/12/29 05:54:00;;;;;;;76.75;19.33;;;6.80;99.90;;;;;;5034914;28;20382;-85
2021/12/29 05:56:26;;;;;;;74.85;20.15;;;6.80;99.90;;;;;;5069263;28;20499;-85
2021/12/29 05:58:52;;;;;;;68.10;18.30;;;7.80;99.90;;;;;;5051792;28;20393;-85
2021/12/29 06:01:18;;;;;;;67.93;20.02;;;7.00;99.90;;;;;;5086373;28;20575;-84
2021/12/29 06:03:44;;;;;;;70.28;19.33;;;6.70;99.90;;;;;;5035592;28;20045;-85
2021/12/29 06:06:10;;;;;;;79.85;20.90;;;6.70;99.90;;;;;;5069665;28;20510;-85
2021/12/29 06:08:35;;;;;;;81.63;21.80;;;6.80;99.90;;;;;;5065366;28;20076;-85
2021/12/29 06:11:01;;;;;;;75.97;20.90;;;6.90;99.90;;;;;;5064304;28;20033;-85
2021/12/29 06:13:27;;;;;;;68.53;19.40;;;7.00;99.90;;;;;;5031908;28;20569;-85
2021/12/29 06:15:53;;;;;;;65.25;19.63;;;6.80;99.90;;;;;;5014625;28;20437;-85
2021/12/29 06:18:19;;;;;;;60.53;19.17;;;6.80;99.90;;;;;;5065084;28;20061;-85
2021/12/29 06:20:44;;;;;;;69.93;19.80;;;6.80;99.90;;;;;;5031388;28;20053;-85
2021/12/29 06:23:13;;;;;;;70.38;20.30;;;6.80;99.90;;;;;;5064117;28;20052;-85
2021/12/29 06:25:40;;;;;;;62.47;18.52;;;6.80;99.90;;;;;;5015475;28;20344;-84
2021/12/29 06:28:06;;;;;;;71.43;19.30;;;6.80;99.90;;;;;;5047350;28;20052;-84
2021/12/29 06:30:32;;;;;;;80.50;20.00;;;6.80;99.90;;;;;;5015044;28;20033;-85
2021/12/29 06:32:58;;;;;;;;;;;6.80;99.90;;;;;;5031486;28;20034;-85
2021/12/29 06:35:23;;;;;;;64.28;18.00;;;6.90;99.90;;;;;;5048105;28;20277;-85
2021/12/29 06:37:49;;;;;;;74.63;19.40;;;6.80;99.90;;;;;;5064297;28;20132;-85
2021/12/29 06:40:15;;;;;;;74.15;19.95;;;6.90;99.90;;;;;;5047294;28;20103;-85
2021/12/29 06:42:43;;;;;;;73.18;19.52;;;6.90;99.90;;;;;;5064417;28;20087;-85
2021/12/29 06:45:09;;;;;;;64.65;18.38;;;6.90;99.90;;;;;;5046960;28;20045;-85
2021/12/29 06:47:36;;;;;;;70.63;17.85;;;6.90;99.90;;;;;;5030934;28;20064;-85
2021/12/29 06:50:06;;;;;;;71.15;18.95;;;6.90;99.90;;;;;;5029553;28;20140;-85
2021/12/29 06:52:32;;;;;;;96.15;21.27;;;7.10;99.90;;;;;;5030850;28;20041;-85
2021/12/29 06:54:58;;;;;;;71.15;18.77;;;6.90;99.90;;;;;;5046802;28;20438;-85
2021/12/29 06:57:23;;;;;;;76.68;19.50;;;6.90;99.90;;;;;;5063773;28;20076;-85
2021/12/29 06:59:49;;;;;;;96.18;21.38;;;6.90;99.90;;;;;;5064552;28;20402;-85
2021/12/29 07:02:15;;;;;;;83.93;19.70;;;7.00;99.90;;;;;;4997710;28;20045;-85
2021/12/29 07:04:42;;;;;;;94.80;20.70;;;6.90;99.90;;;;;;5047802;28;20049;-85
2021/12/29 07:07:07;;;;;;;94.00;21.23;;;7.00;99.90;;;;;;5063852;28;20084;-85
2021/12/29 07:09:34;;;;;;;116.78;22.45;;;7.00;99.90;;;;;;5063983;28;20057;-85
2021/12/29 07:12:03;;;;;;;105.35;22.10;;;6.90;99.90;;;;;;5062844;28;20124;-85
2021/12/29 07:14:29;;;;;;;116.43;21.95;;;6.90;99.90;;;;;;5064080;28;20161;-85
2021/12/29 07:16:55;;;;;;;128.45;23.23;;;6.90;99.90;;;;;;5030294;28;20037;-84
2021/12/29 07:19:21;;;;;;;115.72;22.10;;;6.90;99.90;;;;;;5014026;28;20145;-85
2021/12/29 07:21:47;;;;;;;122.93;23.90;;;7.00;99.90;;;;;;5063734;28;20037;-85
2021/12/29 07:24:13;;;;;;;114.72;22.77;;;7.00;99.90;;;;;;5030485;28;20120;-85
2021/12/29 07:26:39;;;;;;;116.45;23.30;;;7.00;99.90;;;;;;5013878;28;20114;-85
2021/12/29 07:29:06;;;;;;;;;;;7.00;99.90;;;;;;5029916;28;20121;-85
2021/12/29 07:31:32;;;;;;;107.88;19.73;;;6.90;99.90;;;;;;5014180;28;19916;-85
2021/12/29 07:33:59;;;;;;;104.80;20.90;;;7.00;99.90;;;;;;5030017;28;20398;-85
2021/12/29 07:36:24;;;;;;;103.20;20.20;;;7.00;99.90;;;;;;5046784;28;20130;-85
2021/12/29 07:38:50;;;;;;;132.00;23.55;;;7.00;99.90;;;;;;5013738;28;20077;-85
2021/12/29 07:41:16;;;;;;;123.70;21.35;;;7.00;99.90;;;;;;5062531;28;20064;-85
2021/12/29 07:43:43;;;;;;;174.00;25.98;;;7.00;99.90;;;;;;5063277;28;20033;-85
2021/12/29 07:46:10;;;;;;;127.75;22.63;;;7.00;99.90;;;;;;5062282;28;20084;-85
2021/12/29 07:48:35;;;;;;;;;;;7.00;99.90;;;;;;5063831;28;20093;-85
2021/12/29 07:51:04;;;;;;;111.43;19.15;;;7.00;99.90;;;;;;5045996;28;20006;-85
2021/12/29 07:53:30;;;;;;;63.95;15.60;;;7.00;99.90;;;;;;5029799;28;20041;-84
2021/12/29 07:55:56;;;;;;;;;;;7.00;99.90;;;;;;5063481;28;20045;-85
2021/12/29 07:58:22;;;;;;;90.20;18.52;;;7.10;99.90;;;;;;5063580;28;19932;-85
2021/12/29 08:00:49;;;;;;;100.00;18.95;;;7.10;99.90;;;;;;5062668;28;20037;-85
2021/12/29 08:03:16;;;;;;;;;;;7.00;99.90;;;;;;5028700;28;20044;-85
2021/12/29 08:05:43;;;;;;;80.03;16.40;;;7.00;99.90;;;;;;5063081;28;19983;-85
2021/12/29 08:08:09;;;;;;;50.47;13.68;;;7.00;99.90;;;;;;5062407;28;20408;-85
2021/12/29 08:10:37;;;;;;;86.45;16.33;;;7.00;99.90;;;;;;5062392;28;20119;-85
2021/12/29 08:13:04;;;;;;;61.25;14.85;;;7.00;99.90;;;;;;5012555;28;20033;-85
2021/12/29 08:15:34;;;;;;;68.10;13.18;;;7.00;99.90;;;;;;5029323;28;20064;-85
2021/12/29 08:18:02;;;;;;;59.95;12.52;;;7.00;99.90;;;;;;5045427;28;20053;-85
2021/12/29 08:20:28;;;;;;;255.73;23.77;;;7.00;99.90;;;;;;5046561;28;20079;-84
2021/12/29 08:22:54;;;;;;;;;;;7.00;99.90;;;;;;5062813;28;20052;-84
2021/12/29 08:25:20;;;;;;;170.38;17.35;;;6.90;99.90;;;;;;5061813;28;19921;-85
2021/12/29 08:27:46;;;;;;;151.70;15.93;;;6.90;99.90;;;;;;5045529;28;20104;-85
2021/12/29 08:30:12;;;;;;;;;;;6.90;99.90;;;;;;5062404;28;20576;-84
2021/12/29 08:32:38;;;;;;;73.65;14.32;;;7.00;99.90;;;;;;5028733;28;19924;-85
2021/12/29 08:35:04;;;;;;;52.28;14.20;;;6.90;99.90;;;;;;5061679;28;20037;-84
2021/12/29 08:37:30;;;;;;;85.65;17.38;;;7.00;99.90;;;;;;5062228;28;20041;-85
2021/12/29 08:39:56;;;;;;;66.38;16.17;;;7.00;99.90;;;;;;5061912;28;20045;-85
2021/12/29 08:42:25;;;;;;;56.88;15.02;;;7.00;99.90;;;;;;5061877;28;20045;-84
2021/12/29 08:44:51;;;;;;;59.67;15.30;;;7.10;99.90;;;;;;5062131;28;20044;-85
2021/12/29 08:47:16;;;;;;;71.82;16.83;;;7.10;99.90;;;;;;5061651;28;20490;-85
2021/12/29 08:49:42;;;;;;;74.38;15.93;;;7.10;99.90;;;;;;5018262;28;20044;-85
2021/12/29 08:52:08;;;;;;;69.05;15.95;;;7.10;99.90;;;;;;5031275;28;20037;-85
2021/12/29 08:54:34;;;;;;;63.65;15.95;;;7.30;99.90;;;;;;5031969;28;20037;-85
2021/12/29 08:57:02;;;;;;;74.28;15.88;;;7.20;99.90;;;;;;5031861;28;20041;-85
2021/12/29 08:59:28;;;;;;;104.93;15.43;;;7.30;99.90;;;;;;5081932;28;20098;-85
2021/12/29 09:01:53;;;;;;;60.47;14.82;;;7.30;99.90;;;;;;5048229;28;20049;-85
2021/12/29 09:04:20;;;;;;;60.60;14.15;;;7.50;99.90;;;;;;5047763;28;20041;-85
2021/12/29 09:06:46;;;;;;;69.03;12.88;;;7.30;99.90;;;;;;5081201;28;20059;-85
2021/12/29 09:09:11;;;;;;;73.25;14.05;;;7.40;99.90;;;;;;5027672;28;20045;-85
2021/12/29 09:11:39;;;;;;;92.70;16.02;;;7.30;99.90;;;;;;5061595;28;20133;-85
2021/12/29 09:14:06;;;;;;;116.93;15.45;;;7.50;99.90;;;;;;5044547;28;20079;-85
2021/12/29 09:16:32;;;;;;;183.93;18.52;;;7.30;99.90;;;;;;5044597;28;20887;-85
2021/12/29 09:18:57;;;;;;;86.85;14.05;;;7.40;99.90;;;;;;5027933;28;20050;-85
2021/12/29 09:21:26;;;;;;;121.82;16.35;;;7.40;99.90;;;;;;5061493;28;20042;-85
2021/12/29 09:23:52;;;;;;;409.42;30.92;;;7.40;99.90;;;;;;5027952;28;20056;-85
2021/12/29 09:26:18;;;;;;;86.65;14.35;;;7.30;99.90;;;;;;5061355;28;20033;-85
2021/12/29 09:28:47;;;;;;;109.75;16.45;;;7.40;99.90;;;;;;5044845;28;20046;-84
2021/12/29 09:31:14;;;;;;;199.52;19.27;;;7.40;99.90;;;;;;5061854;28;20092;-85
2021/12/29 09:33:41;;;;;;;205.45;19.40;;;7.40;99.90;;;;;;5044123;28;20097;-85
2021/12/29 09:36:07;;;;;;;205.15;20.35;;;7.40;99.90;;;;;;5061010;28;20038;-85
2021/12/29 09:38:35;;;;;;;161.98;17.33;;;7.40;99.90;;;;;;5060836;28;20041;-85
2021/12/29 09:41:02;;;;;;;246.15;20.42;;;7.40;99.90;;;;;;5077484;28;20565;-85
2021/12/29 09:43:28;;;;;;;222.45;20.20;;;7.40;99.90;;;;;;5047661;28;20052;-85
2021/12/29 09:45:54;;;;;;;396.30;27.67;;;7.40;99.90;;;;;;5048444;28;20041;-85
2021/12/29 09:48:20;;;;;;;291.85;22.50;;;7.40;99.90;;;;;;5081593;28;20041;-85
2021/12/29 09:50:47;;;;;;;144.57;16.05;;;7.50;99.90;;;;;;5081945;28;20084;-85
2021/12/29 09:53:14;;;;;;;146.50;15.40;;;7.40;99.90;;;;;;5064262;28;20072;-85
2021/12/29 09:55:41;;;;;;;129.02;16.80;;;7.40;99.90;;;;;;5017302;28;20038;-85
2021/12/29 09:58:08;;;;;;;56.75;12.52;;;7.50;99.90;;;;;;5011497;28;20043;-85
2021/12/29 10:00:37;;;;;;;50.80;11.63;;;7.50;99.90;;;;;;5012058;28;20488;-85
2021/12/29 10:03:07;;;;;;;58.00;12.75;;;7.50;99.90;;;;;;5028544;28;20531;-85
2021/12/29 10:05:34;;;;;;;52.15;11.90;;;7.50;99.90;;;;;;5061886;28;20489;-85
2021/12/29 10:08:05;;;;;;;;;;;7.60;99.90;;;;;;5012244;28;20042;-85
2021/12/29 10:10:32;;;;;;;35.03;9.75;;;7.60;99.90;;;;;;5061263;28;19983;-85
2021/12/29 10:12:59;;;;;;;34.00;9.43;;;7.60;99.90;;;;;;5028380;28;20034;-85
2021/12/29 10:15:35;;;;;;;35.10;9.90;;;7.70;99.90;;;;;;5028376;28;20117;-84
2021/12/29 10:18:09;;;;;;;38.75;9.93;;;7.60;99.90;;;;;;5044508;28;20049;-85
2021/12/29 10:20:45;;;;;;;36.25;10.05;;;7.70;99.90;;;;;;5061476;28;20088;-85
2021/12/29 10:23:20;;;;;;;25.92;8.77;;;7.70;99.90;;;;;;5028133;28;20050;-85
2021/12/29 10:25:47;;;;;;;28.48;8.80;;;7.70;99.90;;;;;;5063505;28;20040;-85
2021/12/29 10:28:31;;;;;;;28.63;8.85;;;7.70;99.90;;;;;;5065199;28;20052;-85
2021/12/29 10:31:02;;;;;;;29.23;8.52;;;7.70;99.90;;;;;;5064878;28;20045;-85
2021/12/29 10:33:37;;;;;;;32.08;9.07;;;7.70;99.90;;;;;;5065005;28;20092;-85
2021/12/29 10:36:16;;;;;;;22.45;7.75;;;7.80;99.90;;;;;;5048563;28;20037;-85
2021/12/29 10:38:43;;;;;;;24.85;8.40;;;7.70;99.90;;;;;;5065566;28;20474;-85
2021/12/29 10:41:09;;;;;;;27.00;9.25;;;7.70;99.90;;;;;;5048372;28;20095;-84
2021/12/29 10:43:36;;;;;;;28.63;9.27;;;7.70;99.90;;;;;;5076260;28;20128;-85
2021/12/29 10:46:02;;;;;;;39.13;10.23;;;7.80;99.90;;;;;;5085250;28;20033;-85
2021/12/29 10:48:30;;;;;;;26.67;8.98;;;8.10;99.90;;;;;;5085400;28;20481;-85
2021/12/29 10:51:08;;;;;;;23.48;8.82;;;7.80;99.90;;;;;;5085218;28;20052;-86
2021/12/29 10:53:36;;;;;;;25.15;8.95;;;7.80;99.90;;;;;;5085511;28;20508;-85
2021/12/29 10:56:04;;;;;;;24.23;8.55;;;7.90;99.90;;;;;;5084673;28;20041;-86
2021/12/29 10:58:33;;;;;;;21.73;7.90;;;7.90;99.90;;;;;;5084216;28;20037;-85
2021/12/29 11:01:02;;;;;;;24.73;8.25;;;7.90;99.90;;;;;;5069664;28;20048;-85
2021/12/29 11:03:31;;;;;;;27.48;8.60;;;7.90;99.90;;;;;;5064423;28;20698;-85
2021/12/29 11:06:00;;;;;;;22.90;8.13;;;7.90;99.90;;;;;;5064487;28;20383;-86
2021/12/29 11:08:29;;;;;;;22.83;7.80;;;7.80;99.90;;;;;;5047869;28;20520;-86
2021/12/29 11:11:02;;;;;;;28.33;8.68;;;7.80;99.90;;;;;;5064321;28;20072;-85
2021/12/29 11:13:30;;;;;;;23.10;8.23;;;7.80;99.90;;;;;;5047853;28;20487;-86
2021/12/29 11:15:59;;;;;;;24.65;8.50;;;7.80;99.90;;;;;;5064965;28;20087;-86
2021/12/29 11:18:25;;;;;;;20.58;7.35;;;7.80;99.90;;;;;;5047061;28;20136;-85
2021/12/29 11:20:56;;;;;;;20.85;7.32;;;7.80;99.90;;;;;;5047516;28;20416;-84
2021/12/29 11:23:22;;;;;;;24.10;7.93;;;7.90;99.90;;;;;;5063509;28;20076;-86
2021/12/29 11:25:49;;;;;;;21.05;8.20;;;7.80;99.90;;;;;;5047590;28;20076;-86
2021/12/29 11:28:24;;;;;;;21.60;7.63;;;8.40;99.90;;;;;;5063287;28;20091;-86
2021/12/29 11:30:51;;;;;;;23.30;8.07;;;7.80;99.90;;;;;;5047459;28;20072;-86
2021/12/29 11:33:18;;;;;;;22.23;7.97;;;7.80;99.90;;;;;;5071679;28;20033;-86
2021/12/29 11:35:47;;;;;;;26.92;8.25;;;7.80;99.90;;;;;;5084816;28;20049;-85
2021/12/29 11:38:15;;;;;;;30.35;8.40;;;7.80;99.90;;;;;;5082640;28;20039;-85
2021/12/29 11:40:45;;;;;;;21.73;7.93;;;7.80;99.90;;;;;;5082975;28;20124;-86
2021/12/29 11:43:13;;;;;;;23.88;8.02;;;7.90;99.90;;;;;;5083668;28;20048;-85
2021/12/29 11:45:40;;;;;;;19.02;7.65;;;7.90;99.90;;;;;;5083250;28;20158;-85
2021/12/29 11:48:08;;;;;;;22.85;8.10;;;7.90;99.90;;;;;;5083843;28;20033;-85
2021/12/29 11:50:36;;;;;;;19.98;7.70;;;8.00;99.90;;;;;;5071149;28;20076;-84
2021/12/29 11:53:23;;;;;;;17.73;7.80;;;8.00;99.90;;;;;;5062737;28;20084;-85
2021/12/29 11:55:55;;;;;;;22.92;8.65;;;8.00;99.90;;;;;;5063609;28;20386;-85
2021/12/29 11:58:26;;;;;;;21.88;8.73;;;8.10;99.90;;;;;;5062575;28;20037;-85
2021/12/29 12:01:23;;;;;;;21.15;8.13;;;8.10;99.90;;;;;;5063339;28;20050;-85
2021/12/29 12:03:53;;;;;;;27.25;7.90;;;8.10;99.90;;;;;;5028239;28;20053;-85
2021/12/29 12:06:47;;;;;;;29.52;9.20;;;8.10;99.90;;;;;;5062652;28;20072;-85
2021/12/29 12:09:25;;;;;;;27.80;8.15;;;8.10;99.90;;;;;;5046145;28;20041;-85
2021/12/29 12:12:00;;;;;;;27.52;8.10;;;8.20;99.90;;;;;;5062746;28;20478;-85
2021/12/29 12:14:31;;;;;;;29.30;7.80;;;8.20;99.90;;;;;;5045631;28;20029;-85
2021/12/29 12:17:08;;;;;;;20.05;6.50;;;8.20;99.90;;;;;;5062290;28;20045;-85
2021/12/29 12:19:34;;;;;;;24.85;6.88;;;8.20;99.90;;;;;;5045272;28;20046;-85
2021/12/29 12:22:02;;;;;;;16.42;6.00;;;8.30;99.90;;;;;;5045682;28;20051;-85
2021/12/29 12:24:28;;;;;;;24.00;6.88;;;8.30;99.90;;;;;;5061776;28;20166;-85
2021/12/29 12:26:54;;;;;;;14.90;5.97;;;8.20;99.90;;;;;;5063043;28;20041;-85
2021/12/29 12:29:21;;;;;;;20.07;6.33;;;8.20;99.90;;;;;;5062090;28;20054;-85
2021/12/29 12:31:59;;;;;;;21.95;6.28;;;8.20;99.90;;;;;;5045520;28;20323;-85
2021/12/29 12:34:25;;;;;;;22.85;6.38;;;8.30;99.90;;;;;;5062136;28;20401;-85
2021/12/29 12:36:51;;;;;;;24.42;6.47;;;8.30;99.90;;;;;;5045631;28;20053;-85
2021/12/29 12:39:19;;;;;;;19.40;5.97;;;8.20;99.90;;;;;;5044978;28;20053;-85
2021/12/29 12:41:53;;;;;;;19.90;6.25;;;8.20;99.90;;;;;;5045659;28;20555;-85
2021/12/29 12:44:31;;;;;;;22.00;5.88;;;8.30;99.90;;;;;;5061734;28;20103;-86
2021/12/29 12:47:09;;;;;;;19.60;5.97;;;8.30;99.90;;;;;;5045267;28;20083;-85
2021/12/29 12:49:44;;;;;;;19.98;5.50;;;8.20;99.90;;;;;;5061775;28;20045;-86
2021/12/29 12:52:12;;;;;;;21.52;5.13;;;8.20;99.90;;;;;;5062403;28;20478;-86